createdAt,value
2022-08-17T00:09:57.634Z,20.62
2022-08-17T00:20:00.420Z,20.59
2022-08-17T00:30:02.083Z,20.61
2022-08-17T00:40:04.758Z,20.53
2022-08-17T00:50:14.894Z,20.54
2022-08-17T01:00:26.888Z,20.31
2022-08-17T01:10:59.457Z,20.41
2022-08-17T01:21:14.926Z,20.25
2022-08-17T01:31:17.599Z,20.28
2022-08-17T01:41:22.002Z,20.11
2022-08-17T01:51:32.716Z,19.89
2022-08-17T02:01:35.406Z,19.83
2022-08-17T02:11:39.547Z,19.66
2022-08-17T02:21:47.426Z,19.64
2022-08-17T02:31:49.359Z,19.43
2022-08-17T02:42:01.094Z,19.34
2022-08-17T02:52:04.229Z,19.33
2022-08-17T03:02:11.723Z,19.14
2022-08-17T03:12:15.078Z,19.11
2022-08-17T03:22:36.749Z,19.12
2022-08-17T03:32:47.706Z,19.06
2022-08-17T03:42:52.658Z,19.18
2022-08-17T03:53:21.834Z,18.99
2022-08-17T04:03:23.515Z,18.98
2022-08-17T04:13:25.705Z,19.07
2022-08-17T04:23:33.782Z,19.05
2022-08-17T04:33:37.810Z,19.13
2022-08-17T04:43:41.394Z,19.32
2022-08-17T04:53:51.077Z,19.54
2022-08-17T05:04:02.414Z,19.80
2022-08-17T05:14:32.451Z,20.26
2022-08-17T05:24:40.722Z,20.65
2022-08-17T05:34:47.510Z,20.90
2022-08-17T05:44:49.233Z,21.29
2022-08-17T05:55:27.476Z,21.74
2022-08-17T06:05:48.329Z,22.20
2022-08-17T06:16:31.065Z,22.66
2022-08-17T06:26:43.173Z,23.24
2022-08-17T06:37:10.457Z,23.84
2022-08-17T06:47:41.589Z,24.23
2022-08-17T06:57:52.611Z,24.81
2022-08-17T07:08:14.801Z,25.35
2022-08-17T07:18:16.477Z,25.98
2022-08-17T07:28:26.324Z,26.60
2022-08-17T07:38:31.673Z,27.07
2022-08-17T07:48:41.817Z,27.69
2022-08-17T07:58:43.493Z,28.40
2022-08-17T08:08:53.021Z,29.16
2022-08-17T08:18:58.590Z,29.38
2022-08-17T08:29:39.742Z,29.86
2022-08-17T08:40:11.522Z,30.29
2022-08-17T08:50:30.227Z,30.15
2022-08-17T09:00:48.214Z,30.73
2022-08-17T09:11:05.216Z,31.69
2022-08-17T09:21:47.934Z,32.64
2022-08-17T09:32:01.940Z,32.80
2022-08-17T09:42:16.013Z,33.72
2022-08-17T09:52:19.975Z,34.51
2022-08-17T10:02:40.834Z,34.91
2022-08-17T10:12:53.120Z,35.87
2022-08-17T10:23:24.831Z,38.00
2022-08-17T10:33:40.546Z,37.12
2022-08-17T10:44:36.558Z,38.95
2022-08-17T10:54:39.086Z,40.31
2022-08-17T11:05:00.379Z,38.53
2022-08-17T11:15:36.260Z,40.58
2022-08-17T11:25:52.638Z,42.01
2022-08-17T11:36:19.795Z,42.43
2022-08-17T11:47:08.454Z,46.90
2022-08-17T11:57:47.301Z,46.57
2022-08-17T12:08:10.843Z,41.90
2022-08-17T12:18:45.584Z,44.08
2022-08-17T12:28:50.397Z,43.65
2022-08-17T12:39:13.668Z,50.24
2022-08-17T12:49:16.606Z,50.32
2022-08-17T12:59:30.406Z,50.38
2022-08-17T13:09:40.118Z,49.16
2022-08-17T13:19:49.681Z,45.90
2022-08-17T13:29:59.636Z,48.35
2022-08-17T13:40:13.366Z,50.39
2022-08-17T13:50:21.806Z,46.47
2022-08-17T14:00:31.770Z,49.94
2022-08-17T14:10:36.851Z,48.01
2022-08-17T14:20:39.965Z,49.17
2022-08-17T14:30:47.643Z,51.58
2022-08-17T14:40:49.592Z,51.41
2022-08-17T14:50:52.477Z,46.40
2022-08-17T15:01:01.734Z,48.23
2022-08-17T15:11:04.591Z,50.91
2022-08-17T15:21:16.117Z,50.14
2022-08-17T15:31:20.193Z,50.79
2022-08-17T15:41:37.790Z,40.17
2022-08-17T16:24:37.376Z,36.65
2022-08-17T16:34:41.781Z,36.18
2022-08-17T16:44:44.533Z,35.02
2022-08-17T16:54:48.459Z,33.71
2022-08-17T17:05:27.081Z,32.94
2022-08-17T17:15:39.560Z,32.67
2022-08-17T17:25:55.570Z,32.26
2022-08-17T17:36:07.145Z,31.74
2022-08-17T17:46:26.485Z,31.26
2022-08-17T17:56:46.711Z,30.86
2022-08-17T18:07:10.149Z,30.47
2022-08-17T18:17:14.557Z,30.00
2022-08-17T18:27:24.361Z,29.51
2022-08-17T18:37:35.216Z,28.98
2022-08-17T18:47:53.061Z,28.55
2022-08-17T18:58:15.549Z,28.01
2022-08-17T19:08:28.754Z,27.70
2022-08-17T19:18:36.472Z,27.41
2022-08-17T19:29:00.131Z,27.10
2022-08-17T19:39:11.637Z,26.91
2022-08-17T19:49:32.872Z,26.53
2022-08-17T20:00:01.133Z,26.18
2022-08-17T20:10:08.205Z,25.99
2022-08-17T20:20:20.079Z,25.68
2022-08-17T20:30:42.824Z,25.54
2022-08-17T20:40:58.032Z,25.25
2022-08-17T20:51:28.931Z,25.10
2022-08-17T21:01:42.079Z,24.75
2022-08-17T21:12:03.733Z,24.68
2022-08-17T21:22:16.702Z,24.29
2022-08-17T21:32:29.060Z,24.14
2022-08-17T21:42:34.518Z,23.97
2022-08-17T21:52:40.582Z,23.78
2022-08-17T22:02:44.609Z,23.67
2022-08-17T22:13:04.593Z,23.42
2022-08-17T22:23:31.333Z,23.07
2022-08-17T22:33:33.496Z,23.29
2022-08-17T22:43:38.987Z,23.16
2022-08-17T22:54:17.832Z,23.23
2022-08-17T23:04:40.318Z,23.07
2022-08-17T23:14:45.559Z,22.77
2022-08-17T23:24:50.505Z,22.82
2022-08-17T23:35:01.262Z,22.68
2022-08-17T23:45:03.859Z,22.59
2022-08-17T23:55:06.194Z,22.31
